sensor_id;sensor_type;location;lat;lon;timestamp;temperature;humidity
39931;DHT22;26635;-35.248;149.138;2023-01-04T00:01:38;20.70;83.80
39931;DHT22;26635;-35.248;149.138;2023-01-04T00:04:09;20.80;83.90
39931;DHT22;26635;-35.248;149.138;2023-01-04T00:06:40;20.90;83.80
39931;DHT22;26635;-35.248;149.138;2023-01-04T00:09:10;21.10;83.20
39931;DHT22;26635;-35.248;149.138;2023-01-04T00:11:41;21.20;83.10
39931;DHT22;26635;-35.248;149.138;2023-01-04T00:14:11;21.40;82.40
39931;DHT22;26635;-35.248;149.138;2023-01-04T00:16:42;21.50;81.10
39931;DHT22;26635;-35.248;149.138;2023-01-04T00:19:13;21.50;81.00
39931;DHT22;26635;-35.248;149.138;2023-01-04T00:21:44;21.50;81.30
39931;DHT22;26635;-35.248;149.138;2023-01-04T00:24:14;21.50;81.40
39931;DHT22;26635;-35.248;149.138;2023-01-04T00:26:46;21.40;81.10
39931;DHT22;26635;-35.248;149.138;2023-01-04T00:29:17;21.40;81.60
39931;DHT22;26635;-35.248;149.138;2023-01-04T00:31:48;21.50;82.10
39931;DHT22;26635;-35.248;149.138;2023-01-04T00:34:19;21.40;81.70
39931;DHT22;26635;-35.248;149.138;2023-01-04T00:36:52;21.40;81.60
39931;DHT22;26635;-35.248;149.138;2023-01-04T00:39:23;21.40;82.20
39931;DHT22;26635;-35.248;149.138;2023-01-04T00:41:54;21.50;82.20
39931;DHT22;26635;-35.248;149.138;2023-01-04T00:44:35;21.60;82.20
39931;DHT22;26635;-35.248;149.138;2023-01-04T00:47:06;21.60;82.10
39931;DHT22;26635;-35.248;149.138;2023-01-04T00:49:36;21.50;80.90
39931;DHT22;26635;-35.248;149.138;2023-01-04T00:52:06;21.60;81.50
39931;DHT22;26635;-35.248;149.138;2023-01-04T00:54:37;21.60;80.30
39931;DHT22;26635;-35.248;149.138;2023-01-04T00:57:07;21.60;81.80
39931;DHT22;26635;-35.248;149.138;2023-01-04T00:59:38;21.60;81.70
39931;DHT22;26635;-35.248;149.138;2023-01-04T01:02:08;21.70;81.80
39931;DHT22;26635;-35.248;149.138;2023-01-04T01:05:13;21.80;81.00
39931;DHT22;26635;-35.248;149.138;2023-01-04T01:07:55;21.80;81.20
39931;DHT22;26635;-35.248;149.138;2023-01-04T01:10:25;21.90;81.10
39931;DHT22;26635;-35.248;149.138;2023-01-04T01:12:56;21.90;81.20
39931;DHT22;26635;-35.248;149.138;2023-01-04T01:15:26;21.80;80.80
39931;DHT22;26635;-35.248;149.138;2023-01-04T01:17:57;21.90;80.70
39931;DHT22;26635;-35.248;149.138;2023-01-04T01:20:28;21.80;80.50
39931;DHT22;26635;-35.248;149.138;2023-01-04T01:22:58;21.80;80.60
39931;DHT22;26635;-35.248;149.138;2023-01-04T01:25:29;21.80;81.00
39931;DHT22;26635;-35.248;149.138;2023-01-04T01:28:02;21.80;81.30
39931;DHT22;26635;-35.248;149.138;2023-01-04T01:30:32;21.70;80.90
39931;DHT22;26635;-35.248;149.138;2023-01-04T01:33:03;21.70;80.60
39931;DHT22;26635;-35.248;149.138;2023-01-04T01:35:33;21.70;80.90
39931;DHT22;26635;-35.248;149.138;2023-01-04T01:38:04;21.80;81.70
39931;DHT22;26635;-35.248;149.138;2023-01-04T01:40:43;21.90;81.40
39931;DHT22;26635;-35.248;149.138;2023-01-04T01:43:44;22.10;81.50
39931;DHT22;26635;-35.248;149.138;2023-01-04T01:46:12;22.30;80.60
39931;DHT22;26635;-35.248;149.138;2023-01-04T01:48:44;22.40;79.60
39931;DHT22;26635;-35.248;149.138;2023-01-04T01:51:16;22.50;80.00
39931;DHT22;26635;-35.248;149.138;2023-01-04T01:53:51;22.50;79.20
39931;DHT22;26635;-35.248;149.138;2023-01-04T01:56:23;22.50;78.40
39931;DHT22;26635;-35.248;149.138;2023-01-04T01:58:57;22.60;79.00
39931;DHT22;26635;-35.248;149.138;2023-01-04T02:01:28;22.60;78.60
39931;DHT22;26635;-35.248;149.138;2023-01-04T02:03:59;22.70;78.30
39931;DHT22;26635;-35.248;149.138;2023-01-04T02:06:37;22.90;78.50
39931;DHT22;26635;-35.248;149.138;2023-01-04T02:09:09;23.10;78.40
39931;DHT22;26635;-35.248;149.138;2023-01-04T02:11:39;23.30;78.00
39931;DHT22;26635;-35.248;149.138;2023-01-04T02:14:10;23.40;76.60
39931;DHT22;26635;-35.248;149.138;2023-01-04T02:17:23;23.60;75.30
39931;DHT22;26635;-35.248;149.138;2023-01-04T02:34:30;25.40;71.80
39931;DHT22;26635;-35.248;149.138;2023-01-04T02:40:20;25.60;70.00
39931;DHT22;26635;-35.248;149.138;2023-01-04T02:43:03;25.90;71.00
39931;DHT22;26635;-35.248;149.138;2023-01-04T02:46:08;26.20;70.00
39931;DHT22;26635;-35.248;149.138;2023-01-04T02:48:41;26.40;68.80
39931;DHT22;26635;-35.248;149.138;2023-01-04T02:51:36;26.70;68.80
39931;DHT22;26635;-35.248;149.138;2023-01-04T02:54:12;26.90;66.90
39931;DHT22;26635;-35.248;149.138;2023-01-04T02:57:13;26.90;65.70
39931;DHT22;26635;-35.248;149.138;2023-01-04T03:06:00;26.90;65.80
39931;DHT22;26635;-35.248;149.138;2023-01-04T03:11:57;26.70;66.30
39931;DHT22;26635;-35.248;149.138;2023-01-04T03:18:00;26.90;66.00
39931;DHT22;26635;-35.248;149.138;2023-01-04T03:20:33;26.80;66.00
39931;DHT22;26635;-35.248;149.138;2023-01-04T03:23:08;26.70;66.60
39931;DHT22;26635;-35.248;149.138;2023-01-04T03:26:08;26.50;66.90
39931;DHT22;26635;-35.248;149.138;2023-01-04T03:29:03;26.20;66.30
39931;DHT22;26635;-35.248;149.138;2023-01-04T03:32:32;26.30;67.70
39931;DHT22;26635;-35.248;149.138;2023-01-04T03:38:49;26.90;66.20
39931;DHT22;26635;-35.248;149.138;2023-01-04T03:41:45;27.20;65.10
39931;DHT22;26635;-35.248;149.138;2023-01-04T03:44:41;27.40;65.90
39931;DHT22;26635;-35.248;149.138;2023-01-04T03:51:16;27.20;64.00
39931;DHT22;26635;-35.248;149.138;2023-01-04T03:56:46;26.40;65.00
39931;DHT22;26635;-35.248;149.138;2023-01-04T03:59:18;26.10;65.80
39931;DHT22;26635;-35.248;149.138;2023-01-04T04:01:52;25.60;66.80
39931;DHT22;26635;-35.248;149.138;2023-01-04T04:04:23;25.30;68.10
39931;DHT22;26635;-35.248;149.138;2023-01-04T04:07:13;25.10;68.50
39931;DHT22;26635;-35.248;149.138;2023-01-04T04:10:02;24.90;69.20
39931;DHT22;26635;-35.248;149.138;2023-01-04T04:12:33;24.70;69.40
39931;DHT22;26635;-35.248;149.138;2023-01-04T04:15:05;24.70;69.80
39931;DHT22;26635;-35.248;149.138;2023-01-04T04:17:36;24.70;70.10
39931;DHT22;26635;-35.248;149.138;2023-01-04T04:20:09;24.70;69.80
39931;DHT22;26635;-35.248;149.138;2023-01-04T04:22:40;24.90;70.50
39931;DHT22;26635;-35.248;149.138;2023-01-04T04:25:11;24.90;69.70
39931;DHT22;26635;-35.248;149.138;2023-01-04T04:27:43;25.10;70.50
39931;DHT22;26635;-35.248;149.138;2023-01-04T04:30:14;25.00;69.80
39931;DHT22;26635;-35.248;149.138;2023-01-04T04:32:46;24.80;69.30
39931;DHT22;26635;-35.248;149.138;2023-01-04T04:35:17;24.60;70.20
39931;DHT22;26635;-35.248;149.138;2023-01-04T04:37:52;24.30;70.20
39931;DHT22;26635;-35.248;149.138;2023-01-04T04:40:22;24.20;71.00
39931;DHT22;26635;-35.248;149.138;2023-01-04T04:43:11;24.00;72.90
39931;DHT22;26635;-35.248;149.138;2023-01-04T04:45:41;23.70;72.00
39931;DHT22;26635;-35.248;149.138;2023-01-04T04:48:12;23.30;72.50
39931;DHT22;26635;-35.248;149.138;2023-01-04T04:50:44;23.10;73.90
39931;DHT22;26635;-35.248;149.138;2023-01-04T04:53:15;22.90;75.00
39931;DHT22;26635;-35.248;149.138;2023-01-04T04:55:46;22.80;78.20
39931;DHT22;26635;-35.248;149.138;2023-01-04T04:58:20;22.70;79.20
39931;DHT22;26635;-35.248;149.138;2023-01-04T05:00:51;22.40;82.40
39931;DHT22;26635;-35.248;149.138;2023-01-04T05:03:22;22.10;85.60
39931;DHT22;26635;-35.248;149.138;2023-01-04T05:05:53;21.40;85.70
39931;DHT22;26635;-35.248;149.138;2023-01-04T05:08:24;20.90;89.40
39931;DHT22;26635;-35.248;149.138;2023-01-04T05:10:54;20.40;90.30
39931;DHT22;26635;-35.248;149.138;2023-01-04T05:13:25;20.20;91.40
39931;DHT22;26635;-35.248;149.138;2023-01-04T05:15:56;20.00;92.00
39931;DHT22;26635;-35.248;149.138;2023-01-04T05:18:27;19.90;92.40
39931;DHT22;26635;-35.248;149.138;2023-01-04T05:20:59;19.80;93.50
39931;DHT22;26635;-35.248;149.138;2023-01-04T05:23:31;19.80;94.20
39931;DHT22;26635;-35.248;149.138;2023-01-04T05:26:02;19.80;94.50
39931;DHT22;26635;-35.248;149.138;2023-01-04T05:28:34;19.70;94.50
39931;DHT22;26635;-35.248;149.138;2023-01-04T05:31:05;19.60;94.40
39931;DHT22;26635;-35.248;149.138;2023-01-04T05:33:35;19.60;94.10
39931;DHT22;26635;-35.248;149.138;2023-01-04T05:36:06;19.50;94.00
39931;DHT22;26635;-35.248;149.138;2023-01-04T05:38:36;19.50;94.80
39931;DHT22;26635;-35.248;149.138;2023-01-04T05:41:07;19.60;94.90
39931;DHT22;26635;-35.248;149.138;2023-01-04T05:43:58;19.60;95.50
39931;DHT22;26635;-35.248;149.138;2023-01-04T05:46:29;19.60;94.60
39931;DHT22;26635;-35.248;149.138;2023-01-04T05:49:00;19.60;94.20
39931;DHT22;26635;-35.248;149.138;2023-01-04T05:51:30;19.60;94.50
39931;DHT22;26635;-35.248;149.138;2023-01-04T05:54:01;19.60;94.70
39931;DHT22;26635;-35.248;149.138;2023-01-04T05:56:32;19.60;94.60
39931;DHT22;26635;-35.248;149.138;2023-01-04T05:59:03;19.60;94.40
39931;DHT22;26635;-35.248;149.138;2023-01-04T06:01:34;19.60;94.10
39931;DHT22;26635;-35.248;149.138;2023-01-04T06:04:05;19.60;94.00
39931;DHT22;26635;-35.248;149.138;2023-01-04T06:06:37;19.60;93.90
39931;DHT22;26635;-35.248;149.138;2023-01-04T06:09:09;19.50;94.10
39931;DHT22;26635;-35.248;149.138;2023-01-04T06:11:40;19.40;93.70
39931;DHT22;26635;-35.248;149.138;2023-01-04T06:14:12;19.30;93.90
39931;DHT22;26635;-35.248;149.138;2023-01-04T06:16:43;19.30;93.80
39931;DHT22;26635;-35.248;149.138;2023-01-04T06:19:15;19.30;93.60
39931;DHT22;26635;-35.248;149.138;2023-01-04T06:21:48;19.20;93.70
39931;DHT22;26635;-35.248;149.138;2023-01-04T06:24:19;19.10;93.70
39931;DHT22;26635;-35.248;149.138;2023-01-04T06:26:51;19.10;93.70
39931;DHT22;26635;-35.248;149.138;2023-01-04T06:29:22;19.00;94.00
39931;DHT22;26635;-35.248;149.138;2023-01-04T06:31:54;19.00;94.30
39931;DHT22;26635;-35.248;149.138;2023-01-04T06:34:25;19.00;94.60
39931;DHT22;26635;-35.248;149.138;2023-01-04T06:36:58;19.00;94.60
39931;DHT22;26635;-35.248;149.138;2023-01-04T06:39:29;19.00;94.70
39931;DHT22;26635;-35.248;149.138;2023-01-04T06:42:00;19.00;94.70
39931;DHT22;26635;-35.248;149.138;2023-01-04T06:44:34;18.90;93.00
39931;DHT22;26635;-35.248;149.138;2023-01-04T06:47:05;18.80;94.10
39931;DHT22;26635;-35.248;149.138;2023-01-04T06:49:36;18.80;94.50
39931;DHT22;26635;-35.248;149.138;2023-01-04T06:52:08;18.80;94.40
39931;DHT22;26635;-35.248;149.138;2023-01-04T06:54:39;18.80;94.50
39931;DHT22;26635;-35.248;149.138;2023-01-04T06:57:10;18.80;94.30
39931;DHT22;26635;-35.248;149.138;2023-01-04T06:59:41;18.70;94.00
39931;DHT22;26635;-35.248;149.138;2023-01-04T07:02:14;18.70;93.70
39931;DHT22;26635;-35.248;149.138;2023-01-04T07:04:46;18.60;93.40
39931;DHT22;26635;-35.248;149.138;2023-01-04T07:07:18;18.50;93.80
39931;DHT22;26635;-35.248;149.138;2023-01-04T07:09:49;18.40;94.40
39931;DHT22;26635;-35.248;149.138;2023-01-04T07:12:21;18.30;94.50
39931;DHT22;26635;-35.248;149.138;2023-01-04T07:14:53;18.30;94.40
39931;DHT22;26635;-35.248;149.138;2023-01-04T07:17:24;18.30;94.50
39931;DHT22;26635;-35.248;149.138;2023-01-04T07:19:56;18.20;94.20
39931;DHT22;26635;-35.248;149.138;2023-01-04T07:22:30;18.20;93.80
39931;DHT22;26635;-35.248;149.138;2023-01-04T07:25:01;18.20;94.00
39931;DHT22;26635;-35.248;149.138;2023-01-04T07:27:33;18.20;93.70
39931;DHT22;26635;-35.248;149.138;2023-01-04T07:30:04;18.20;94.60
39931;DHT22;26635;-35.248;149.138;2023-01-04T07:32:35;18.30;94.80
39931;DHT22;26635;-35.248;149.138;2023-01-04T07:35:06;18.30;94.90
39931;DHT22;26635;-35.248;149.138;2023-01-04T07:37:37;18.30;94.70
39931;DHT22;26635;-35.248;149.138;2023-01-04T07:40:09;18.20;94.80
39931;DHT22;26635;-35.248;149.138;2023-01-04T07:42:40;18.20;94.90
39931;DHT22;26635;-35.248;149.138;2023-01-04T07:45:11;18.20;95.20
39931;DHT22;26635;-35.248;149.138;2023-01-04T07:47:44;18.20;94.20
39931;DHT22;26635;-35.248;149.138;2023-01-04T07:50:15;18.20;95.00
39931;DHT22;26635;-35.248;149.138;2023-01-04T07:52:46;18.20;94.80
39931;DHT22;26635;-35.248;149.138;2023-01-04T07:55:18;18.20;95.00
39931;DHT22;26635;-35.248;149.138;2023-01-04T07:57:52;18.10;94.20
39931;DHT22;26635;-35.248;149.138;2023-01-04T08:00:23;18.00;94.80
39931;DHT22;26635;-35.248;149.138;2023-01-04T08:02:54;18.00;95.20
39931;DHT22;26635;-35.248;149.138;2023-01-04T08:05:27;18.00;94.10
39931;DHT22;26635;-35.248;149.138;2023-01-04T08:07:58;18.00;94.80
39931;DHT22;26635;-35.248;149.138;2023-01-04T08:10:29;18.10;94.80
39931;DHT22;26635;-35.248;149.138;2023-01-04T08:12:59;18.00;94.80
39931;DHT22;26635;-35.248;149.138;2023-01-04T08:15:30;18.10;95.10
39931;DHT22;26635;-35.248;149.138;2023-01-04T08:18:03;18.00;94.80
39931;DHT22;26635;-35.248;149.138;2023-01-04T08:20:35;18.00;94.80
39931;DHT22;26635;-35.248;149.138;2023-01-04T08:23:09;18.00;94.80
39931;DHT22;26635;-35.248;149.138;2023-01-04T08:25:40;18.00;94.90
39931;DHT22;26635;-35.248;149.138;2023-01-04T08:28:12;17.90;93.40
39931;DHT22;26635;-35.248;149.138;2023-01-04T08:30:42;17.80;94.60
39931;DHT22;26635;-35.248;149.138;2023-01-04T08:33:14;17.90;95.30
39931;DHT22;26635;-35.248;149.138;2023-01-04T08:35:46;17.90;95.20
39931;DHT22;26635;-35.248;149.138;2023-01-04T08:38:26;17.80;94.80
39931;DHT22;26635;-35.248;149.138;2023-01-04T08:41:19;17.80;94.90
39931;DHT22;26635;-35.248;149.138;2023-01-04T08:44:13;17.80;95.00
39931;DHT22;26635;-35.248;149.138;2023-01-04T08:46:44;17.80;94.70
39931;DHT22;26635;-35.248;149.138;2023-01-04T08:49:16;17.80;94.50
39931;DHT22;26635;-35.248;149.138;2023-01-04T08:51:48;17.80;94.70
39931;DHT22;26635;-35.248;149.138;2023-01-04T08:54:20;17.80;94.80
39931;DHT22;26635;-35.248;149.138;2023-01-04T08:56:53;17.70;94.40
39931;DHT22;26635;-35.248;149.138;2023-01-04T08:59:25;17.70;95.00
39931;DHT22;26635;-35.248;149.138;2023-01-04T09:01:55;17.70;94.70
39931;DHT22;26635;-35.248;149.138;2023-01-04T09:04:31;17.70;94.70
39931;DHT22;26635;-35.248;149.138;2023-01-04T09:07:02;17.60;94.90
39931;DHT22;26635;-35.248;149.138;2023-01-04T09:09:34;17.70;95.10
39931;DHT22;26635;-35.248;149.138;2023-01-04T09:12:05;17.60;95.00
39931;DHT22;26635;-35.248;149.138;2023-01-04T09:14:36;17.70;94.90
39931;DHT22;26635;-35.248;149.138;2023-01-04T09:17:08;17.60;94.70
39931;DHT22;26635;-35.248;149.138;2023-01-04T09:19:39;17.60;95.00
39931;DHT22;26635;-35.248;149.138;2023-01-04T09:22:09;17.60;95.00
39931;DHT22;26635;-35.248;149.138;2023-01-04T09:24:40;17.60;95.30
39931;DHT22;26635;-35.248;149.138;2023-01-04T09:27:11;17.50;94.70
39931;DHT22;26635;-35.248;149.138;2023-01-04T09:29:41;17.50;94.80
39931;DHT22;26635;-35.248;149.138;2023-01-04T09:32:12;17.50;94.50
39931;DHT22;26635;-35.248;149.138;2023-01-04T09:34:44;17.40;94.60
39931;DHT22;26635;-35.248;149.138;2023-01-04T09:37:15;17.40;94.80
39931;DHT22;26635;-35.248;149.138;2023-01-04T09:39:45;17.40;94.90
39931;DHT22;26635;-35.248;149.138;2023-01-04T09:42:37;17.30;94.80
39931;DHT22;26635;-35.248;149.138;2023-01-04T09:45:16;17.30;94.90
39931;DHT22;26635;-35.248;149.138;2023-01-04T09:50:35;17.20;94.10
39931;DHT22;26635;-35.248;149.138;2023-01-04T09:53:26;17.20;94.60
39931;DHT22;26635;-35.248;149.138;2023-01-04T09:56:24;17.10;94.10
39931;DHT22;26635;-35.248;149.138;2023-01-04T09:58:53;17.00;94.10
39931;DHT22;26635;-35.248;149.138;2023-01-04T10:01:27;16.90;94.00
39931;DHT22;26635;-35.248;149.138;2023-01-04T10:06:58;16.90;94.60
39931;DHT22;26635;-35.248;149.138;2023-01-04T10:09:33;16.90;94.60
39931;DHT22;26635;-35.248;149.138;2023-01-04T10:21:28;16.70;94.60
39931;DHT22;26635;-35.248;149.138;2023-01-04T10:26:49;16.60;94.30
39931;DHT22;26635;-35.248;149.138;2023-01-04T10:29:46;16.60;94.40
39931;DHT22;26635;-35.248;149.138;2023-01-04T10:32:48;16.50;94.40
39931;DHT22;26635;-35.248;149.138;2023-01-04T10:35:23;16.40;94.40
39931;DHT22;26635;-35.248;149.138;2023-01-04T10:37:59;16.30;94.20
39931;DHT22;26635;-35.248;149.138;2023-01-04T10:40:37;16.20;94.40
39931;DHT22;26635;-35.248;149.138;2023-01-04T10:49:45;16.10;94.50
39931;DHT22;26635;-35.248;149.138;2023-01-04T10:59:08;16.20;94.40
39931;DHT22;26635;-35.248;149.138;2023-01-04T11:10:19;16.00;93.90
39931;DHT22;26635;-35.248;149.138;2023-01-04T11:12:54;16.00;93.00
39931;DHT22;26635;-35.248;149.138;2023-01-04T11:15:25;16.00;93.50
39931;DHT22;26635;-35.248;149.138;2023-01-04T11:17:56;15.90;92.70
39931;DHT22;26635;-35.248;149.138;2023-01-04T11:20:28;15.80;92.00
39931;DHT22;26635;-35.248;149.138;2023-01-04T11:23:09;15.80;93.30
39931;DHT22;26635;-35.248;149.138;2023-01-04T11:26:02;15.80;94.00
39931;DHT22;26635;-35.248;149.138;2023-01-04T11:29:24;15.70;94.20
39931;DHT22;26635;-35.248;149.138;2023-01-04T11:31:46;15.70;94.00
39931;DHT22;26635;-35.248;149.138;2023-01-04T11:34:18;15.60;94.00
39931;DHT22;26635;-35.248;149.138;2023-01-04T11:36:48;15.60;94.10
39931;DHT22;26635;-35.248;149.138;2023-01-04T11:39:25;15.60;94.10
39931;DHT22;26635;-35.248;149.138;2023-01-04T11:41:58;15.60;94.30
39931;DHT22;26635;-35.248;149.138;2023-01-04T11:44:31;15.60;94.20
39931;DHT22;26635;-35.248;149.138;2023-01-04T11:47:18;15.60;94.20
39931;DHT22;26635;-35.248;149.138;2023-01-04T11:49:52;15.60;94.40
39931;DHT22;26635;-35.248;149.138;2023-01-04T11:52:34;15.60;94.60
39931;DHT22;26635;-35.248;149.138;2023-01-04T11:55:25;15.60;94.70
39931;DHT22;26635;-35.248;149.138;2023-01-04T11:58:06;15.60;94.50
39931;DHT22;26635;-35.248;149.138;2023-01-04T12:00:38;15.50;94.60
39931;DHT22;26635;-35.248;149.138;2023-01-04T12:06:02;15.50;94.60
39931;DHT22;26635;-35.248;149.138;2023-01-04T12:08:33;15.60;94.30
39931;DHT22;26635;-35.248;149.138;2023-01-04T12:11:05;15.60;94.70
39931;DHT22;26635;-35.248;149.138;2023-01-04T12:13:36;15.50;94.80
39931;DHT22;26635;-35.248;149.138;2023-01-04T12:18:47;15.50;94.20
39931;DHT22;26635;-35.248;149.138;2023-01-04T12:21:21;15.50;94.50
39931;DHT22;26635;-35.248;149.138;2023-01-04T12:23:53;15.60;94.90
39931;DHT22;26635;-35.248;149.138;2023-01-04T12:26:25;15.60;95.00
39931;DHT22;26635;-35.248;149.138;2023-01-04T12:34:43;15.70;94.70
39931;DHT22;26635;-35.248;149.138;2023-01-04T12:37:46;15.70;95.20
39931;DHT22;26635;-35.248;149.138;2023-01-04T12:45:47;15.70;94.00
39931;DHT22;26635;-35.248;149.138;2023-01-04T12:48:37;15.70;94.50
39931;DHT22;26635;-35.248;149.138;2023-01-04T12:51:26;15.70;94.90
39931;DHT22;26635;-35.248;149.138;2023-01-04T12:54:04;15.70;94.30
39931;DHT22;26635;-35.248;149.138;2023-01-04T12:57:31;15.70;94.70
39931;DHT22;26635;-35.248;149.138;2023-01-04T13:00:07;15.70;94.40
39931;DHT22;26635;-35.248;149.138;2023-01-04T13:02:44;15.60;92.90
39931;DHT22;26635;-35.248;149.138;2023-01-04T13:08:12;15.70;94.20
39931;DHT22;26635;-35.248;149.138;2023-01-04T13:10:47;15.70;94.20
39931;DHT22;26635;-35.248;149.138;2023-01-04T13:13:31;15.60;94.10
39931;DHT22;26635;-35.248;149.138;2023-01-04T13:19:21;15.60;93.50
39931;DHT22;26635;-35.248;149.138;2023-01-04T13:21:53;15.50;94.00
39931;DHT22;26635;-35.248;149.138;2023-01-04T13:24:32;15.50;94.20
39931;DHT22;26635;-35.248;149.138;2023-01-04T13:27:12;15.40;93.90
39931;DHT22;26635;-35.248;149.138;2023-01-04T13:29:43;15.40;94.00
39931;DHT22;26635;-35.248;149.138;2023-01-04T13:32:25;15.40;94.00
39931;DHT22;26635;-35.248;149.138;2023-01-04T13:35:11;15.30;94.20
39931;DHT22;26635;-35.248;149.138;2023-01-04T13:37:43;15.30;94.10
39931;DHT22;26635;-35.248;149.138;2023-01-04T13:40:26;15.30;94.10
39931;DHT22;26635;-35.248;149.138;2023-01-04T13:48:39;15.30;93.60
39931;DHT22;26635;-35.248;149.138;2023-01-04T13:54:03;15.20;94.10
39931;DHT22;26635;-35.248;149.138;2023-01-04T13:56:34;15.20;94.20
39931;DHT22;26635;-35.248;149.138;2023-01-04T13:59:05;15.20;94.40
39931;DHT22;26635;-35.248;149.138;2023-01-04T14:01:46;15.20;94.10
39931;DHT22;26635;-35.248;149.138;2023-01-04T14:04:29;15.20;94.10
39931;DHT22;26635;-35.248;149.138;2023-01-04T14:07:00;15.20;94.10
39931;DHT22;26635;-35.248;149.138;2023-01-04T14:09:35;15.20;94.30
39931;DHT22;26635;-35.248;149.138;2023-01-04T14:12:16;15.20;94.40
39931;DHT22;26635;-35.248;149.138;2023-01-04T14:15:13;15.10;94.10
39931;DHT22;26635;-35.248;149.138;2023-01-04T14:17:53;15.10;94.50
39931;DHT22;26635;-35.248;149.138;2023-01-04T14:20:30;15.10;93.40
39931;DHT22;26635;-35.248;149.138;2023-01-04T14:23:02;15.10;94.40
39931;DHT22;26635;-35.248;149.138;2023-01-04T14:33:40;15.20;94.10
39931;DHT22;26635;-35.248;149.138;2023-01-04T14:36:28;15.10;94.10
39931;DHT22;26635;-35.248;149.138;2023-01-04T14:39:08;15.10;94.10
39931;DHT22;26635;-35.248;149.138;2023-01-04T14:41:41;15.10;94.20
39931;DHT22;26635;-35.248;149.138;2023-01-04T14:44:15;15.10;93.50
39931;DHT22;26635;-35.248;149.138;2023-01-04T14:46:59;15.20;93.60
39931;DHT22;26635;-35.248;149.138;2023-01-04T14:49:47;15.10;93.50
39931;DHT22;26635;-35.248;149.138;2023-01-04T14:52:21;15.20;93.70
39931;DHT22;26635;-35.248;149.138;2023-01-04T14:54:52;15.20;93.90
39931;DHT22;26635;-35.248;149.138;2023-01-04T14:57:22;15.20;93.40
39931;DHT22;26635;-35.248;149.138;2023-01-04T14:59:52;15.20;92.70
39931;DHT22;26635;-35.248;149.138;2023-01-04T15:02:23;15.20;93.10
39931;DHT22;26635;-35.248;149.138;2023-01-04T15:04:55;15.20;93.30
39931;DHT22;26635;-35.248;149.138;2023-01-04T15:07:38;15.20;93.30
39931;DHT22;26635;-35.248;149.138;2023-01-04T15:10:24;15.10;91.20
39931;DHT22;26635;-35.248;149.138;2023-01-04T15:12:56;15.00;91.40
39931;DHT22;26635;-35.248;149.138;2023-01-04T15:15:29;14.90;90.20
39931;DHT22;26635;-35.248;149.138;2023-01-04T15:18:01;14.80;90.30
39931;DHT22;26635;-35.248;149.138;2023-01-04T15:20:32;14.70;90.50
39931;DHT22;26635;-35.248;149.138;2023-01-04T15:23:03;14.60;90.80
39931;DHT22;26635;-35.248;149.138;2023-01-04T15:25:33;14.60;90.40
39931;DHT22;26635;-35.248;149.138;2023-01-04T15:28:04;14.50;90.00
39931;DHT22;26635;-35.248;149.138;2023-01-04T15:30:34;14.40;88.40
39931;DHT22;26635;-35.248;149.138;2023-01-04T15:33:05;14.30;90.50
39931;DHT22;26635;-35.248;149.138;2023-01-04T15:35:36;14.30;90.00
39931;DHT22;26635;-35.248;149.138;2023-01-04T15:38:06;14.30;89.40
39931;DHT22;26635;-35.248;149.138;2023-01-04T15:40:44;14.30;88.70
39931;DHT22;26635;-35.248;149.138;2023-01-04T15:43:16;14.30;90.20
39931;DHT22;26635;-35.248;149.138;2023-01-04T15:45:46;14.30;90.10
39931;DHT22;26635;-35.248;149.138;2023-01-04T15:48:16;14.30;88.90
39931;DHT22;26635;-35.248;149.138;2023-01-04T15:50:47;14.30;90.10
39931;DHT22;26635;-35.248;149.138;2023-01-04T15:53:17;14.30;90.00
39931;DHT22;26635;-35.248;149.138;2023-01-04T15:55:48;14.30;89.30
39931;DHT22;26635;-35.248;149.138;2023-01-04T15:58:20;14.30;90.10
39931;DHT22;26635;-35.248;149.138;2023-01-04T16:00:51;14.30;90.50
39931;DHT22;26635;-35.248;149.138;2023-01-04T16:03:34;14.40;90.40
39931;DHT22;26635;-35.248;149.138;2023-01-04T16:06:06;14.40;89.40
39931;DHT22;26635;-35.248;149.138;2023-01-04T16:08:37;14.40;90.10
39931;DHT22;26635;-35.248;149.138;2023-01-04T16:11:13;14.40;90.10
39931;DHT22;26635;-35.248;149.138;2023-01-04T16:13:45;14.40;90.30
39931;DHT22;26635;-35.248;149.138;2023-01-04T16:16:16;14.40;90.00
39931;DHT22;26635;-35.248;149.138;2023-01-04T16:18:52;14.40;88.70
39931;DHT22;26635;-35.248;149.138;2023-01-04T16:21:25;14.50;90.30
39931;DHT22;26635;-35.248;149.138;2023-01-04T16:23:57;14.40;89.40
39931;DHT22;26635;-35.248;149.138;2023-01-04T16:26:49;14.40;90.00
39931;DHT22;26635;-35.248;149.138;2023-01-04T16:29:19;14.40;90.10
39931;DHT22;26635;-35.248;149.138;2023-01-04T16:31:49;14.40;89.20
39931;DHT22;26635;-35.248;149.138;2023-01-04T16:34:20;14.50;90.20
39931;DHT22;26635;-35.248;149.138;2023-01-04T16:36:50;14.50;89.60
39931;DHT22;26635;-35.248;149.138;2023-01-04T16:39:21;14.50;90.10
39931;DHT22;26635;-35.248;149.138;2023-01-04T16:42:11;14.50;89.50
39931;DHT22;26635;-35.248;149.138;2023-01-04T16:44:43;14.50;89.40
39931;DHT22;26635;-35.248;149.138;2023-01-04T16:47:14;14.50;87.70
39931;DHT22;26635;-35.248;149.138;2023-01-04T16:49:48;14.50;89.20
39931;DHT22;26635;-35.248;149.138;2023-01-04T16:52:19;14.50;89.10
39931;DHT22;26635;-35.248;149.138;2023-01-04T16:54:50;14.50;89.50
39931;DHT22;26635;-35.248;149.138;2023-01-04T16:57:20;14.50;89.50
39931;DHT22;26635;-35.248;149.138;2023-01-04T16:59:52;14.50;89.80
39931;DHT22;26635;-35.248;149.138;2023-01-04T17:02:23;14.60;90.20
39931;DHT22;26635;-35.248;149.138;2023-01-04T17:04:53;14.60;89.40
39931;DHT22;26635;-35.248;149.138;2023-01-04T17:07:28;14.60;89.70
39931;DHT22;26635;-35.248;149.138;2023-01-04T17:10:01;14.60;89.50
39931;DHT22;26635;-35.248;149.138;2023-01-04T17:12:31;14.60;90.70
39931;DHT22;26635;-35.248;149.138;2023-01-04T17:15:17;14.70;90.50
39931;DHT22;26635;-35.248;149.138;2023-01-04T17:18:09;14.60;89.90
39931;DHT22;26635;-35.248;149.138;2023-01-04T17:20:41;14.60;89.80
39931;DHT22;26635;-35.248;149.138;2023-01-04T17:23:11;14.60;90.00
39931;DHT22;26635;-35.248;149.138;2023-01-04T17:25:43;14.60;90.00
39931;DHT22;26635;-35.248;149.138;2023-01-04T17:28:14;14.60;90.40
39931;DHT22;26635;-35.248;149.138;2023-01-04T17:30:51;14.60;90.30
39931;DHT22;26635;-35.248;149.138;2023-01-04T17:33:22;14.60;90.30
39931;DHT22;26635;-35.248;149.138;2023-01-04T17:35:52;14.60;90.60